Rowena, Texas
Current Conditions -  °F | °C
As of 5:51 AM on Friday 24 Oct 2014 (Local Time) from KSJT Reporting Station
Haze Haze  
Wind Chill: 13°   Ceiling: Unl
Heat Index: 13°   Visibility: 3mi
Dew Point: 12°   Wind: 5mph
Humidity: 96%   Direction: 230°SW
Pressure: 30.13"   Gusts: NA
Location:  31.65°N, 100.05°W
Report Text: KSJT 241051Z AUTO 23004KT 3SM BR CLR 13/12 A3013 RMK AO2 SLP190 T01280122
Loading
Personal Weather Stations






























Interactive Weather Map
Tropical Storm Tracking
New forecast layout! Learn more

10-Day Weather Forecast

Advertisements
Track Severe Weather on mobile